Terminal Aerodrome Forecast
Issued by NWS Charleston, WV

Current Version | Previous Version | Text Only | Print | Product List | Glossary Off
Versions: 1 2 3 4 5 6 7 8 9 10 11 12 13 14 15 16 17 18 19 20 21 22 23 24 25

000
FTUS41 KRLX 130500
TAFHTS
TAF
KHTS 130540Z 1306/1406 02003KT P6SM OVC025
     FM131300 33005KT P6SM OVC020
     FM131500 33005KT P6SM OVC010
     FM131600 33006KT P6SM BKN020
     FM131800 33007KT P6SM BKN030
     FM132100 33007KT P6SM BKN250
     FM140200 VRB03KT P6SM SCT250=

USA.gov is the U.S. government's official web portal to all federal, state and local government web resources and services.